Strona główna
METAR-TAF:

METAR-TAF

Lotnisko :

Juazeiro do Norte, Ceará, Brazylia

Szerokość geograficzna: 07-13-06S, Długość geograficzna: 039-16-18W, wysokość: 424 m

Aktualna obserwacja pogody

Raport powstał 31 minut temu, godzina 04:00 UTC
Wiatr 9 kt od południowo-południowy wschód
Temperatura 23°C
Wilgotność 73%
Ciśnienie 1019 hPa
Widzialność 10 km lub więcej
Brak chmur poniżej 1500 m i brak chmur cumulonimbus

METAR: SBJU 150400Z 16009KT CAVOK 23/18 Q1019

czas: 01:31 (04:31 UTC)


TAF: brakujący

Obserwacja i prognoza pogody dla ponad 4000 lotnisk (raport METAR i TAF).

Dostępne stacje oznaczono żółtymi i czerwonymi punktami na mapie.

Najedź kursorem aby zobaczyć nazwę stacji.

Kliknij aby zobaczyć obserwacje i prognozy pogody.

Aby zmienić mapę: kliknij na zielony przycisk z czarnym krzyżykiem, aby powiększyć; na zielony przycisk z myślnikiem, aby pomniejszyć; na zielone strzałki, aby przejść do map sąsiednich.


METAR-TAF: